Thomas, New Mexico
Current Conditions -  °F | °C
As of 9:55 AM on Friday 24 Oct 2014 (Local Time) from KCAO Reporting Station
Clear Clear  
Wind Chill: 74°   Ceiling: Unl
Heat Index: 74°   Visibility: 10mi
Dew Point: 35°   Wind: 7mph
Humidity: 24%   Direction: 240°WSW
Pressure: 30.22"   Gusts: NA
Location:  36.2639°N, 103.376°W
Report Text: KCAO 241555Z AUTO 24006KT 10SM CLR 23/02 A3022 RMK AO2 SLP182 T02330017
Loading
Personal Weather Stations






























Interactive Weather Map New forecast layout! Learn more

10-Day Weather Forecast

Advertisements
Track Severe Weather on mobile